createdAt,value
2022-12-15T00:00:34.133Z,-5.86
2022-12-15T00:03:25.878Z,-5.81
2022-12-15T00:06:13.595Z,-5.79
2022-12-15T00:08:59.584Z,-5.82
2022-12-15T00:11:45.292Z,-5.97
2022-12-15T00:14:31.519Z,-5.93
2022-12-15T00:17:17.598Z,-5.85
2022-12-15T00:20:03.239Z,-5.75
2022-12-15T00:22:50.411Z,-5.75
2022-12-15T00:25:36.409Z,-5.80
2022-12-15T00:28:22.965Z,-5.79
2022-12-15T00:31:08.969Z,-5.80
2022-12-15T00:33:54.881Z,-5.80
2022-12-15T00:36:40.781Z,-5.91
2022-12-15T00:39:10.661Z,-5.91
2022-12-15T00:41:39.479Z,-6.02
2022-12-15T00:44:07.761Z,-6.10
2022-12-15T00:46:53.433Z,-6.03
2022-12-15T00:49:39.511Z,-6.17
2022-12-15T00:52:25.579Z,-6.20
2022-12-15T00:55:12.620Z,-6.08
2022-12-15T00:57:59.157Z,-6.00
2022-12-15T01:00:45.886Z,-6.07
2022-12-15T01:03:34.407Z,-6.01
2022-12-15T01:06:25.540Z,-6.00
2022-12-15T01:09:11.201Z,-5.96
2022-12-15T01:11:59.269Z,-5.85
2022-12-15T01:14:45.889Z,-5.90
2022-12-15T01:17:32.484Z,-5.92
2022-12-15T01:20:19.928Z,-5.90
2022-12-15T01:22:49.959Z,-6.19
2022-12-15T01:25:21.692Z,-6.45
2022-12-15T01:27:52.570Z,-6.39
2022-12-15T01:30:25.383Z,-6.34
2022-12-15T01:32:54.451Z,-6.27
2022-12-15T01:35:23.865Z,-6.21
2022-12-15T01:37:52.298Z,-6.15
2022-12-15T01:40:39.792Z,-6.12
2022-12-15T01:43:14.937Z,-6.10
2022-12-15T01:45:55.000Z,-6.10
2022-12-15T01:48:30.802Z,-6.22
2022-12-15T01:51:07.241Z,-6.31
2022-12-15T01:53:42.296Z,-6.46
2022-12-15T01:56:12.041Z,-6.42
2022-12-15T01:58:46.223Z,-6.54
2022-12-15T02:01:14.623Z,-6.56
2022-12-15T02:03:46.140Z,-6.68
2022-12-15T02:06:15.541Z,-6.63
2022-12-15T02:08:49.421Z,-6.78
2022-12-15T02:11:56.140Z,-6.56
2022-12-15T02:14:54.650Z,-6.50
2022-12-15T02:17:36.883Z,-6.57
2022-12-15T02:20:47.527Z,-6.65
2022-12-15T02:24:18.571Z,-6.89
2022-12-15T02:27:51.770Z,-7.07
2022-12-15T02:30:41.335Z,-6.88
2022-12-15T02:33:18.227Z,-6.85
2022-12-15T02:35:58.413Z,-6.87
2022-12-15T02:38:35.428Z,-6.94
2022-12-15T02:41:08.349Z,-7.04
2022-12-15T02:43:41.135Z,-6.85
2022-12-15T02:46:25.941Z,-6.84
2022-12-15T02:49:04.319Z,-6.95
2022-12-15T02:51:50.970Z,-6.95
2022-12-15T02:54:45.665Z,-6.89
2022-12-15T02:57:25.841Z,-6.78
2022-12-15T03:00:00.220Z,-6.81
2022-12-15T03:02:37.721Z,-6.73
2022-12-15T03:05:08.007Z,-6.87
2022-12-15T03:07:36.551Z,-6.86
2022-12-15T03:10:07.387Z,-6.87
2022-12-15T03:12:35.650Z,-6.76
2022-12-15T03:15:04.242Z,-7.12
2022-12-15T03:17:35.078Z,-6.91
2022-12-15T03:20:03.843Z,-6.75
2022-12-15T03:22:32.759Z,-6.69
2022-12-15T03:25:01.249Z,-6.83
2022-12-15T03:27:29.552Z,-7.17
2022-12-15T03:29:58.188Z,-7.22
2022-12-15T03:32:26.372Z,-7.12
2022-12-15T03:34:56.210Z,-7.18
2022-12-15T03:37:24.470Z,-7.14
2022-12-15T03:39:52.769Z,-7.15
2022-12-15T03:42:42.473Z,-7.15
2022-12-15T03:45:11.451Z,-7.18
2022-12-15T03:47:42.726Z,-7.18
2022-12-15T03:50:15.500Z,-7.02
2022-12-15T03:52:44.044Z,-6.93
2022-12-15T03:55:12.909Z,-6.85
2022-12-15T03:57:42.126Z,-6.88
2022-12-15T04:00:14.796Z,-6.85
2022-12-15T04:02:43.889Z,-6.87
2022-12-15T04:05:18.206Z,-6.74
2022-12-15T04:07:47.046Z,-6.89
2022-12-15T04:10:15.981Z,-7.03
2022-12-15T04:12:44.558Z,-7.01
2022-12-15T04:15:13.443Z,-6.88
2022-12-15T04:17:42.562Z,-6.81
2022-12-15T04:20:11.207Z,-6.78
2022-12-15T04:22:45.212Z,-6.67
2022-12-15T04:25:33.666Z,-6.62
2022-12-15T04:28:20.387Z,-6.56
2022-12-15T04:31:10.925Z,-6.83
2022-12-15T04:34:01.258Z,-6.73
2022-12-15T04:36:48.663Z,-6.71
2022-12-15T04:39:35.865Z,-6.82
2022-12-15T04:42:22.812Z,-6.77
2022-12-15T04:45:12.213Z,-6.81
2022-12-15T04:48:00.359Z,-7.26
2022-12-15T04:50:45.940Z,-7.27
2022-12-15T04:53:35.278Z,-7.16
2022-12-15T04:56:23.893Z,-7.22
2022-12-15T04:59:09.393Z,-7.12
2022-12-15T05:01:55.467Z,-7.12
2022-12-15T05:04:41.357Z,-7.15
2022-12-15T05:07:27.388Z,-7.03
2022-12-15T05:10:15.369Z,-7.04
2022-12-15T05:13:03.344Z,-6.92
2022-12-15T05:15:50.977Z,-7.04
2022-12-15T05:18:36.766Z,-6.89
2022-12-15T05:21:22.808Z,-6.89
2022-12-15T05:24:08.685Z,-6.77
2022-12-15T05:26:54.793Z,-6.77
2022-12-15T05:29:42.313Z,-6.92
2022-12-15T05:32:10.550Z,-6.87
2022-12-15T05:34:40.098Z,-6.93
2022-12-15T05:37:08.349Z,-6.82
2022-12-15T05:39:36.718Z,-6.82
2022-12-15T05:42:05.301Z,-6.97
2022-12-15T05:44:35.083Z,-7.35
2022-12-15T05:47:05.018Z,-7.23
2022-12-15T05:49:33.776Z,-7.30
2022-12-15T05:52:02.147Z,-7.21
2022-12-15T05:54:30.623Z,-7.06
2022-12-15T05:56:58.877Z,-7.12
2022-12-15T05:59:27.198Z,-7.13
2022-12-15T06:01:57.204Z,-7.02
2022-12-15T06:04:25.874Z,-6.95
2022-12-15T06:06:54.200Z,-6.88
2022-12-15T06:09:22.567Z,-6.86
2022-12-15T06:11:52.061Z,-6.86
2022-12-15T06:14:21.074Z,-7.08
2022-12-15T06:16:50.455Z,-6.97
2022-12-15T06:19:21.968Z,-7.08
2022-12-15T06:21:50.539Z,-6.98
2022-12-15T06:24:19.200Z,-7.12
2022-12-15T06:26:49.925Z,-7.23
2022-12-15T06:29:20.606Z,-7.17
2022-12-15T06:31:48.920Z,-7.10
2022-12-15T06:34:18.632Z,-6.95
2022-12-15T06:36:48.651Z,-6.81
2022-12-15T06:39:17.486Z,-6.84
2022-12-15T06:41:45.771Z,-6.92
2022-12-15T06:44:15.919Z,-6.85
2022-12-15T06:46:46.072Z,-6.83
2022-12-15T06:49:15.083Z,-6.82
2022-12-15T06:51:45.042Z,-6.79
2022-12-15T06:54:15.451Z,-6.84
2022-12-15T06:56:43.790Z,-6.82
2022-12-15T06:59:13.514Z,-6.72
2022-12-15T07:01:43.034Z,-6.72
2022-12-15T07:04:12.109Z,-6.94
2022-12-15T07:06:42.231Z,-7.09
2022-12-15T07:09:18.657Z,-6.89
2022-12-15T07:11:50.246Z,-7.05
2022-12-15T07:14:18.662Z,-7.02
2022-12-15T07:16:47.009Z,-6.97
2022-12-15T07:19:15.728Z,-7.02
2022-12-15T07:21:44.307Z,-6.95
2022-12-15T07:24:15.004Z,-6.93
2022-12-15T07:26:43.304Z,-6.80
2022-12-15T07:29:12.265Z,-6.87
2022-12-15T07:31:40.899Z,-6.69
2022-12-15T07:34:09.538Z,-6.73
2022-12-15T07:36:37.752Z,-6.92
2022-12-15T07:39:06.733Z,-7.05
2022-12-15T07:41:36.528Z,-6.97
2022-12-15T07:44:06.167Z,-7.22
2022-12-15T07:46:34.626Z,-7.28
2022-12-15T07:49:02.972Z,-7.30
2022-12-15T07:51:31.166Z,-7.03
2022-12-15T07:53:59.698Z,-6.84
2022-12-15T07:56:27.965Z,-6.88
2022-12-15T07:58:57.552Z,-6.94
2022-12-15T08:01:26.115Z,-6.81
2022-12-15T08:03:54.978Z,-6.75
2022-12-15T08:06:23.448Z,-6.74
2022-12-15T08:08:52.296Z,-6.60
2022-12-15T08:11:25.089Z,-6.48
2022-12-15T08:14:03.165Z,-6.62
2022-12-15T08:16:36.590Z,-6.51
2022-12-15T08:19:06.366Z,-6.46
2022-12-15T08:21:36.026Z,-6.50
2022-12-15T08:24:04.356Z,-6.60
2022-12-15T08:26:32.728Z,-6.43
2022-12-15T08:29:49.002Z,-6.31
2022-12-15T08:31:55.218Z,-6.36
2022-12-15T08:34:23.769Z,-6.29
2022-12-15T08:36:51.988Z,-6.17
2022-12-15T08:39:20.619Z,-6.31
2022-12-15T08:41:49.486Z,-6.22
2022-12-15T08:44:18.077Z,-6.15
2022-12-15T08:46:46.607Z,-6.09
2022-12-15T08:49:21.647Z,-5.93
2022-12-15T08:51:53.327Z,-5.89
2022-12-15T08:54:22.309Z,-6.03
2022-12-15T08:56:52.039Z,-6.01
2022-12-15T08:59:20.300Z,-5.82
2022-12-15T09:01:48.921Z,-5.88
2022-12-15T09:04:19.429Z,-5.91
2022-12-15T09:06:50.299Z,-5.69
2022-12-15T09:09:19.851Z,-5.74
2022-12-15T09:11:48.526Z,-5.82
2022-12-15T09:14:22.828Z,-5.72
2022-12-15T09:16:56.647Z,-5.72
2022-12-15T09:19:26.712Z,-5.48
2022-12-15T09:21:56.015Z,-5.41
2022-12-15T09:24:33.874Z,-5.34
2022-12-15T09:27:04.252Z,-5.55
2022-12-15T09:29:33.834Z,-5.64
2022-12-15T09:32:02.355Z,-5.57
2022-12-15T09:34:32.510Z,-5.43
2022-12-15T09:37:01.013Z,-5.46
2022-12-15T09:39:29.878Z,-5.37
2022-12-15T09:42:01.484Z,-5.16
2022-12-15T09:44:33.300Z,-4.99
2022-12-15T09:47:18.693Z,-4.87
2022-12-15T09:49:56.880Z,-4.84
2022-12-15T09:52:30.382Z,-4.83
2022-12-15T09:55:01.466Z,-4.78
2022-12-15T09:57:44.705Z,-4.65
2022-12-15T10:00:21.716Z,-4.52
2022-12-15T10:03:30.611Z,-4.27
2022-12-15T10:06:18.382Z,-4.29
2022-12-15T10:08:56.712Z,-4.17
2022-12-15T10:11:50.157Z,-4.04
2022-12-15T10:14:29.609Z,-4.00
2022-12-15T10:17:08.141Z,-4.01
2022-12-15T10:19:43.492Z,-4.06
2022-12-15T10:22:30.281Z,-3.98
2022-12-15T10:25:11.642Z,-4.11
2022-12-15T10:28:04.991Z,-3.84
2022-12-15T10:30:34.053Z,-3.90
2022-12-15T10:33:04.844Z,-3.78
2022-12-15T10:35:36.043Z,-3.58
2022-12-15T10:38:14.979Z,-3.48
2022-12-15T10:40:50.598Z,-3.42
2022-12-15T10:43:29.874Z,-3.43
2022-12-15T10:46:14.813Z,-3.22
2022-12-15T10:48:48.478Z,-3.16
2022-12-15T10:51:26.884Z,-3.05
2022-12-15T10:54:07.063Z,-3.09
2022-12-15T10:56:46.637Z,-3.11
2022-12-15T10:59:27.332Z,-3.03
2022-12-15T11:01:56.166Z,-2.92
2022-12-15T11:04:29.572Z,-3.07
2022-12-15T11:07:00.636Z,-2.91
2022-12-15T11:09:36.634Z,-2.83
2022-12-15T11:12:35.752Z,-2.78
2022-12-15T11:15:24.491Z,-2.64
2022-12-15T11:18:04.924Z,-2.63
2022-12-15T11:20:39.897Z,-2.82
2022-12-15T11:23:14.798Z,-2.72
2022-12-15T11:25:50.327Z,-2.66
2022-12-15T11:28:23.687Z,-2.72
2022-12-15T11:30:58.506Z,-2.52
2022-12-15T11:33:26.787Z,-2.38
2022-12-15T11:36:13.016Z,-2.43
2022-12-15T11:38:47.639Z,-2.29
2022-12-15T11:41:38.569Z,-2.13
2022-12-15T11:44:23.087Z,-2.17
2022-12-15T11:47:04.985Z,-1.98
2022-12-15T11:50:10.644Z,-1.95
2022-12-15T11:53:06.118Z,-1.89
2022-12-15T11:55:47.006Z,-1.71
2022-12-15T11:58:43.781Z,-1.58
2022-12-15T12:01:27.000Z,-1.49
2022-12-15T12:04:09.605Z,-1.49
2022-12-15T12:06:47.914Z,-1.42
2022-12-15T12:09:30.975Z,-1.39
2022-12-15T12:12:13.221Z,-1.26
2022-12-15T12:14:59.118Z,-1.33
2022-12-15T12:17:41.349Z,-1.34
2022-12-15T12:20:19.337Z,-1.26
2022-12-15T12:22:59.814Z,-1.23
2022-12-15T12:25:28.362Z,-1.18
2022-12-15T12:28:02.054Z,-1.13
2022-12-15T12:30:40.998Z,-1.12
2022-12-15T12:33:21.717Z,-1.00
2022-12-15T12:35:56.069Z,-0.87
2022-12-15T12:38:31.807Z,-0.74
2022-12-15T12:41:08.158Z,-0.65
2022-12-15T12:43:42.521Z,-0.53
2022-12-15T12:46:19.991Z,-0.55
2022-12-15T12:48:53.773Z,-0.41
2022-12-15T12:51:30.780Z,-0.22
2022-12-15T12:54:00.259Z,0.14
2022-12-15T12:56:41.279Z,-0.20
2022-12-15T12:59:42.109Z,0.19
2022-12-15T13:02:51.452Z,-0.04
2022-12-15T13:05:33.119Z,0.17
2022-12-15T13:08:52.739Z,-0.05
2022-12-15T13:11:56.812Z,-0.01
2022-12-15T13:14:51.915Z,0.17
2022-12-15T13:17:33.363Z,0.05
2022-12-15T13:20:34.415Z,0.23
2022-12-15T13:23:41.451Z,0.10
2022-12-15T13:26:19.815Z,0.14
2022-12-15T13:28:53.269Z,0.00
2022-12-15T13:31:41.814Z,0.03
2022-12-15T13:34:27.241Z,0.38
2022-12-15T13:37:02.195Z,0.27
2022-12-15T13:39:59.787Z,0.51
2022-12-15T13:42:47.276Z,0.51
2022-12-15T13:45:52.025Z,0.66
2022-12-15T13:48:39.614Z,0.49
2022-12-15T13:51:30.107Z,0.61
2022-12-15T13:54:05.827Z,0.51
2022-12-15T13:56:56.225Z,0.62
2022-12-15T13:59:37.178Z,0.50
2022-12-15T14:02:28.172Z,0.42
2022-12-15T14:05:17.779Z,0.50
2022-12-15T14:07:54.395Z,0.55
2022-12-15T14:10:28.639Z,0.50
2022-12-15T14:13:03.232Z,0.73
2022-12-15T14:15:43.868Z,0.37
2022-12-15T14:18:30.789Z,0.19
2022-12-15T14:21:00.824Z,0.34
2022-12-15T14:23:32.103Z,0.09
2022-12-15T14:26:08.287Z,-0.25
2022-12-15T14:28:39.375Z,-0.07
2022-12-15T14:31:13.431Z,-0.15
2022-12-15T14:33:44.988Z,-0.20
2022-12-15T14:36:21.246Z,-0.31
2022-12-15T14:38:54.512Z,-0.41
2022-12-15T14:41:29.011Z,-0.52
2022-12-15T14:44:37.254Z,-0.59
2022-12-15T14:46:50.489Z,-0.47
2022-12-15T14:49:23.439Z,-0.69
2022-12-15T14:51:55.008Z,-0.88
2022-12-15T14:54:35.637Z,-0.94
2022-12-15T14:57:16.399Z,-1.21
2022-12-15T14:59:48.499Z,-1.23
2022-12-15T15:02:23.174Z,-1.22
2022-12-15T15:05:04.053Z,-1.30
2022-12-15T15:07:33.902Z,-1.37
2022-12-15T15:10:05.201Z,-1.44
2022-12-15T15:12:46.576Z,-1.43
2022-12-15T15:15:18.996Z,-1.48
2022-12-15T15:17:52.486Z,-1.60
2022-12-15T15:20:26.816Z,-1.60
2022-12-15T15:23:17.369Z,-1.49
2022-12-15T15:25:52.481Z,-1.55
2022-12-15T15:28:29.831Z,-1.56
2022-12-15T15:31:05.559Z,-1.59
2022-12-15T15:33:34.791Z,-1.71
2022-12-15T15:36:07.351Z,-1.87
2022-12-15T15:38:39.595Z,-1.83
2022-12-15T15:41:18.984Z,-1.92
2022-12-15T15:43:49.299Z,-2.01
2022-12-15T15:46:21.719Z,-2.01
2022-12-15T15:48:54.144Z,-2.01
2022-12-15T15:51:24.771Z,-1.85
2022-12-15T15:53:54.379Z,-1.83
2022-12-15T15:56:22.770Z,-1.91
2022-12-15T15:58:52.691Z,-2.02
2022-12-15T16:01:21.022Z,-2.10
2022-12-15T16:03:49.814Z,-2.09
2022-12-15T16:06:21.063Z,-1.91
2022-12-15T16:08:53.733Z,-1.93
2022-12-15T16:11:23.369Z,-1.99
2022-12-15T16:13:53.291Z,-2.14
2022-12-15T16:16:25.421Z,-2.17
2022-12-15T16:18:54.097Z,-2.34
2022-12-15T16:21:27.278Z,-2.13
2022-12-15T16:23:57.183Z,-2.24
2022-12-15T16:26:31.019Z,-2.12
2022-12-15T16:29:01.299Z,-2.09
2022-12-15T16:31:40.646Z,-2.13
2022-12-15T16:34:10.144Z,-2.13
2022-12-15T16:36:39.082Z,-2.32
2022-12-15T16:39:26.279Z,-2.35
2022-12-15T16:41:56.484Z,-2.34
2022-12-15T16:44:27.977Z,-2.44
2022-12-15T16:46:56.909Z,-2.43
2022-12-15T16:49:25.569Z,-2.35
2022-12-15T16:51:55.007Z,-2.43
2022-12-15T16:54:27.175Z,-2.63
2022-12-15T16:56:57.355Z,-2.73
2022-12-15T16:59:36.264Z,-2.83
2022-12-15T17:02:26.950Z,-2.71
2022-12-15T17:04:55.883Z,-2.82
2022-12-15T17:07:27.714Z,-2.88
2022-12-15T17:09:57.850Z,-2.75
2022-12-15T17:12:26.603Z,-2.83
2022-12-15T17:14:57.480Z,-2.86
2022-12-15T17:17:32.298Z,-2.99
2022-12-15T17:22:51.929Z,-2.80
2022-12-15T17:25:45.950Z,-2.91
2022-12-15T17:28:19.757Z,-3.06
2022-12-15T17:30:51.371Z,-3.15
2022-12-15T17:33:22.303Z,-3.09
2022-12-15T17:35:54.937Z,-3.08
2022-12-15T17:38:25.356Z,-3.02
2022-12-15T17:40:54.642Z,-3.15
2022-12-15T17:43:28.151Z,-3.05
2022-12-15T17:46:02.041Z,-3.33
2022-12-15T17:48:30.433Z,-3.37
2022-12-15T17:50:59.294Z,-3.37
2022-12-15T17:53:27.947Z,-3.29
2022-12-15T17:55:56.384Z,-3.22
2022-12-15T17:58:27.383Z,-3.33
2022-12-15T18:00:57.601Z,-3.46
2022-12-15T18:03:27.763Z,-3.50
2022-12-15T18:05:56.188Z,-3.70
2022-12-15T18:08:27.828Z,-3.65
2022-12-15T18:10:58.491Z,-3.59
2022-12-15T18:13:34.796Z,-3.58
2022-12-15T18:16:03.934Z,-3.54
2022-12-15T18:18:34.929Z,-3.49
2022-12-15T18:21:13.650Z,-3.63
2022-12-15T18:23:42.319Z,-3.62
2022-12-15T18:26:13.257Z,-3.61
2022-12-15T18:28:41.587Z,-3.63
2022-12-15T18:31:21.353Z,-3.71
2022-12-15T18:33:51.115Z,-3.70
2022-12-15T18:36:20.376Z,-3.65
2022-12-15T18:38:48.958Z,-3.64
2022-12-15T18:41:21.147Z,-3.71
2022-12-15T18:43:59.069Z,-3.80
2022-12-15T18:46:28.234Z,-3.79
2022-12-15T18:49:00.224Z,-3.71
2022-12-15T18:51:30.906Z,-3.78
2022-12-15T18:53:59.283Z,-4.01
2022-12-15T18:56:28.689Z,-3.92
2022-12-15T18:58:57.101Z,-3.88
2022-12-15T19:01:26.009Z,-3.97
2022-12-15T19:03:54.725Z,-4.06
2022-12-15T19:06:38.031Z,-4.11
2022-12-15T19:09:08.903Z,-4.26
2022-12-15T19:11:37.230Z,-4.42
2022-12-15T19:14:34.349Z,-4.26
2022-12-15T19:17:20.331Z,-4.30
2022-12-15T19:20:06.237Z,-4.34
2022-12-15T19:22:37.123Z,-4.34
2022-12-15T19:25:06.946Z,-4.33
2022-12-15T19:27:35.249Z,-4.39
2022-12-15T19:30:08.142Z,-4.51
2022-12-15T19:32:37.667Z,-4.51
2022-12-15T19:35:06.952Z,-4.44
2022-12-15T19:37:39.186Z,-4.53
2022-12-15T19:40:09.834Z,-4.47
2022-12-15T19:42:40.741Z,-4.50
2022-12-15T19:45:17.765Z,-4.53
2022-12-15T19:47:46.350Z,-4.46
2022-12-15T19:50:16.731Z,-4.67
2022-12-15T19:52:53.080Z,-4.58
2022-12-15T19:55:27.787Z,-4.53
2022-12-15T19:57:56.898Z,-4.49
2022-12-15T20:00:27.348Z,-4.53
2022-12-15T20:02:56.646Z,-4.56
2022-12-15T20:05:26.584Z,-4.44
2022-12-15T20:07:56.473Z,-4.58
2022-12-15T20:10:32.262Z,-4.61
2022-12-15T20:13:03.195Z,-4.61
2022-12-15T20:15:32.508Z,-4.59
2022-12-15T20:18:01.584Z,-4.69
2022-12-15T20:20:31.265Z,-4.78
2022-12-15T20:23:06.819Z,-4.67
2022-12-15T20:25:38.433Z,-4.61
2022-12-15T20:28:15.021Z,-4.71
2022-12-15T20:30:44.796Z,-4.77
2022-12-15T20:33:13.852Z,-4.92
2022-12-15T20:35:43.455Z,-5.00
2022-12-15T20:38:27.952Z,-4.93
2022-12-15T20:40:58.717Z,-5.08
2022-12-15T20:43:31.193Z,-5.12
2022-12-15T20:46:06.635Z,-5.18
2022-12-15T20:48:37.613Z,-5.23
2022-12-15T20:51:09.895Z,-5.19
2022-12-15T20:53:40.040Z,-5.34
2022-12-15T20:56:09.313Z,-5.30
2022-12-15T20:58:40.591Z,-5.42
2022-12-15T21:01:21.140Z,-5.37
2022-12-15T21:03:51.877Z,-5.34
2022-12-15T21:06:21.870Z,-5.46
2022-12-15T21:08:51.813Z,-5.47
2022-12-15T21:11:24.369Z,-5.49
2022-12-15T21:13:54.456Z,-5.43
2022-12-15T21:16:26.436Z,-5.54
2022-12-15T21:21:47.146Z,-5.41
2022-12-15T21:24:20.679Z,-5.44
2022-12-15T21:26:49.387Z,-5.48
2022-12-15T21:29:21.283Z,-5.55
2022-12-15T21:31:50.373Z,-5.49
2022-12-15T21:34:19.042Z,-5.48
2022-12-15T21:39:43.826Z,-5.68
2022-12-15T21:42:16.191Z,-5.68
2022-12-15T21:44:45.022Z,-5.51
2022-12-15T21:47:46.823Z,-5.71
2022-12-15T21:50:14.866Z,-5.52
2022-12-15T21:52:43.469Z,-5.63
2022-12-15T21:55:19.280Z,-5.66
2022-12-15T21:57:48.088Z,-5.84
2022-12-15T22:00:19.288Z,-6.02
2022-12-15T22:02:49.758Z,-6.01
2022-12-15T22:05:22.006Z,-5.93
2022-12-15T22:07:51.594Z,-6.00
2022-12-15T22:10:21.302Z,-5.88
2022-12-15T22:12:58.976Z,-5.90
2022-12-15T22:15:29.915Z,-5.97
2022-12-15T22:17:58.346Z,-5.88
2022-12-15T22:20:27.035Z,-5.89
2022-12-15T22:22:55.481Z,-5.85
2022-12-15T22:25:26.973Z,-5.85
2022-12-15T22:27:55.495Z,-5.86
2022-12-15T22:30:26.824Z,-6.05
2022-12-15T22:32:55.551Z,-6.13
2022-12-15T22:35:27.195Z,-6.19
2022-12-15T22:37:56.308Z,-6.20
2022-12-15T22:40:27.378Z,-6.12
2022-12-15T22:42:58.477Z,-6.12
2022-12-15T22:45:27.020Z,-6.11
2022-12-15T22:47:55.493Z,-5.95
2022-12-15T22:50:27.360Z,-5.92
2022-12-15T22:52:55.627Z,-5.84
2022-12-15T22:55:26.270Z,-5.95
2022-12-15T22:58:00.505Z,-5.89
2022-12-15T23:00:28.800Z,-5.83
2022-12-15T23:02:59.420Z,-5.77
2022-12-15T23:05:27.696Z,-5.94
2022-12-15T23:07:56.068Z,-5.97
2022-12-15T23:10:41.766Z,-6.03
2022-12-15T23:13:12.494Z,-6.17
2022-12-15T23:16:00.846Z,-6.07
2022-12-15T23:18:29.203Z,-6.21
2022-12-15T23:20:57.904Z,-6.17
2022-12-15T23:23:28.073Z,-6.07
2022-12-15T23:25:56.713Z,-6.04
2022-12-15T23:28:27.462Z,-6.11
2022-12-15T23:30:56.627Z,-6.32
2022-12-15T23:33:27.024Z,-6.43
2022-12-15T23:35:56.387Z,-6.36
2022-12-15T23:38:26.569Z,-6.34
2022-12-15T23:40:56.921Z,-6.30
2022-12-15T23:43:29.688Z,-6.28
2022-12-15T23:45:59.671Z,-6.58
2022-12-15T23:48:32.553Z,-6.54
2022-12-15T23:51:06.597Z,-6.37
2022-12-15T23:53:35.716Z,-6.29
2022-12-15T23:56:10.074Z,-6.37
2022-12-15T23:58:41.050Z,-6.41
